• Join FlightAware (Why Join?)
  • Login
  • US Flag 
01:29AM EDT


 

Airport Tracker/Info


-or-


 

Live Flight TrackerFlight Track Log ✈ SWA1802 ✈ 12-Jun-2013 ✈ KMDW - KLAX

Flight Track Log - Related Links

Times and Time Zones

All times are in EDT time to prevent confusion due to time zone crossing. See the SWA1802 flight status page for this flight to view local times or setup timezone preferences in your user account.

Time Position Orientation Groundspeed Altitude Reporting Facility
EDT Latitude Longitude Course Direction KTS MPH feet Rate Location/Type
06:40PM 41.7833 -87.7167 180° South 170 196 2,000  Level Chicago TRACON
06:41PM 41.7500 -87.7167 180° South 223 257 3,000 780 Climbing Chicago TRACON
06:42PM 41.7247 -87.7097 168° South 225 259 3,000 1,680 Level Chicago Center
06:43PM 41.6694 -87.7642 216° Southwest 242 278 5,400 2,460 Climbing Chicago Center
06:44PM 41.6125 -87.8219 217° Southwest 254 292 8,100 3,060 Climbing Chicago Center
06:45PM 41.5406 -87.8892 215° Southwest 262 302 11,700 1,860 Climbing Chicago Center
06:46PM 41.2316 -88.2500 180° South  Level FlightAware Approximate
06:46PM 41.4861 -87.9553 222° Southwest 266 306 12,000  Level Chicago Center
06:47PM 41.4225 -88.0022 209° Southwest 262 302 12,000  Level Chicago Center
06:48PM 41.3589 -88.0547 212° Southwest 259 298 12,000 480 Level Chicago Center
06:49PM 41.2958 -88.1019 209° Southwest 258 297 13,100 1,560 Climbing Chicago Center
06:50PM 41.2283 -88.1417 204° Southwest 266 306 15,300 2,160 Climbing Chicago Center
06:51PM 41.1542 -88.1842 203° Southwest 288 331 17,500 2,220 Climbing Chicago Center
06:52PM 41.0786 -88.2289 204° Southwest 297 342 19,900 2,040 Climbing Chicago Center
06:53PM 40.9986 -88.2750 204° Southwest 312 359 21,700 1,500 Climbing Chicago Center
06:54PM 40.9167 -88.3228 204° Southwest 320 368 23,000 600 Climbing Chicago Center
06:55PM 40.8150 -88.3811 203° Southwest 330 380 23,000 480 Level Chicago Center
06:56PM 40.7283 -88.4303 203° Southwest 337 388 24,000 480 Climbing Chicago Center
06:57PM 40.6439 -88.4783 203° Southwest 334 384 24,000  Level Chicago Center
06:58PM 40.5575 -88.5275 203° Southwest 337 388 24,000 240 Level Chicago Center
06:59PM 40.4611 -88.5844 204° Southwest 346 398 24,500 480 Climbing Chicago Center
07:00PM 40.3564 -88.6433 203° Southwest 393 452 25,000 840 Climbing Chicago Center
07:01PM 40.2614 -88.7375 217° Southwest 427 491 26,300 1,260 Climbing Chicago Center
07:02PM 40.1739 -88.8467 224° Southwest 432 497 27,600 1,200 Climbing Chicago Center
07:03PM 40.0858 -88.9600 225° Southwest 441 507 28,800 1,320 Climbing Chicago Center
07:04PM 39.9961 -89.0750 224° Southwest 448 516 30,400 1,440 Climbing Chicago Center
07:05PM 39.9178 -89.1997 231° Southwest 448 516 31,800 1,500 Climbing Chicago Center
07:06PM 39.8961 -89.3494 259° West 427 491 33,500 1,260 Climbing Chicago Center
07:07PM 39.8786 -89.4972 261° West 416 479 34,400 1,080 Climbing Chicago Center
07:08PM 39.8611 -89.6431 261° West 408 470 35,800 780 Climbing Chicago Center
07:09PM 39.8436 -89.7842 261° West 398 458 36,000 60 Climbing Chicago Center
07:10PM 39.8228 -89.9575 261° West 400 460 36,000  Level Kansas City Center
07:11PM 39.8039 -90.1031 260° West 404 465 36,000  Level Kansas City Center
07:13PM 39.7853 -90.2492 261° West 407 468 36,000  Level Kansas City Center
07:14PM 39.7664 -90.3931 260° West 405 466 36,000  Level Kansas City Center
07:15PM 39.7439 -90.5700 261° West 410 472 36,000  Level Kansas City Center
07:16PM 39.7075 -90.8394 260° West 415 478 36,000  Level Chicago Center
07:18PM 39.6833 -91.0206 260° West 420 483 36,000  Level Kansas City Center
07:19PM 39.6639 -91.1681 260° West 419 482 36,000  Level Kansas City Center
07:20PM 39.6436 -91.3136 260° West 415 478 36,000  Level Kansas City Center
07:22PM 39.5989 -91.6275 260° West 410 472 36,000  Level Kansas City Center
07:23PM 39.5778 -91.7717 259° West 410 472 36,000  Level Kansas City Center
07:24PM 39.5567 -91.9156 259° West 409 471 36,000  Level Kansas City Center
07:25PM 39.5367 -92.0575 260° West 406 467 36,000  Level Kansas City Center
07:26PM 39.5153 -92.1994 259° West 404 465 36,000  Level Kansas City Center
07:27PM 39.4903 -92.3722 259° West 407 468 36,000  Level Kansas City Center
07:28PM 39.4683 -92.5161 259° West 408 470 36,000  Level Kansas City Center
07:29PM 39.4472 -92.6586 259° West 409 471 36,000  Level Kansas City Center
07:30PM 39.4258 -92.8011 259° West 407 468 36,000  Level Kansas City Center
07:31PM 39.4036 -92.9422 259° West 405 466 36,000  Level Kansas City Center
07:32PM 39.3778 -93.1117 259° West 403 464 36,000  Level Kansas City Center
07:33PM 39.3550 -93.2519 258° West 401 461 36,000  Level Kansas City Center
07:34PM 39.3328 -93.3914 258° West 400 460 36,000  Level Kansas City Center
07:35PM 39.3114 -93.5311 259° West 399 459 36,000  Level Kansas City Center
07:36PM 39.2883 -93.6703 258° West 399 459 36,000  Level Kansas City Center
07:37PM 39.2650 -93.8269 259° West 398 458 36,000  Level Kansas City Center
07:38PM 39.2394 -93.9819 258° West 396 456 36,000  Level Kansas City Center
07:39PM 39.2169 -94.1169 258° West 400 460 36,000  Level Kansas City Center
07:40PM 39.1942 -94.2517 258° West 401 461 36,000  Level Kansas City Center
07:41PM 39.1678 -94.4108 258° West 406 467 36,000  Level Kansas City Center
07:42PM 39.1436 -94.5478 257° West 408 470 36,000  Level Kansas City Center
07:44PM 39.1156 -94.7092 257° West 414 476 36,000  Level Kansas City Center
07:45PM 39.0922 -94.8472 258° West 412 474 36,000  Level Kansas City Center
07:46PM 39.0647 -95.0089 258° West 411 473 36,000  Level Kansas City Center
07:47PM 39.0383 -95.1578 257° West 412 474 36,000  Level Kansas City Center
07:48PM 39.0128 -95.3011 257° West 412 474 36,000  Level Kansas City Center
07:49PM 38.9872 -95.4500 258° West 412 474 36,000  Level Kansas City Center
07:50PM 38.9636 -95.5864 257° West 408 470 36,000  Level Kansas City Center
07:51PM 38.9353 -95.7458 257° West 409 471 36,000  Level Kansas City Center
07:52PM 38.9097 -95.8814 256° West 408 470 36,000  Level Kansas City Center
07:53PM 38.8817 -96.0406 257° West 409 471 36,000  Level Kansas City Center
07:54PM 38.8564 -96.1761 257° West 408 470 36,000  Level Kansas City Center
07:55PM 38.8264 -96.3353 256° West 410 472 36,000  Level Kansas City Center
07:56PM 38.7994 -96.4697 256° West 408 470 36,000  Level Kansas City Center
07:57PM 38.7750 -96.6019 257° West 411 473 36,000  Level Kansas City Center
07:58PM 38.7431 -96.7728 257° West 413 475 36,000  Level Kansas City Center
07:59PM 38.7175 -96.9189 257° West 419 482 36,000  Level Kansas City Center
08:00PM 38.6892 -97.0625 256° West 418 481 36,000  Level Kansas City Center
08:01PM 38.6622 -97.2050 256° West 414 476 36,000  Level Kansas City Center
08:02PM 38.6347 -97.3469 256° West 413 475 36,000  Level Kansas City Center
08:03PM 38.6072 -97.4886 256° West 412 474 36,000  Level Kansas City Center
08:04PM 38.5733 -97.6589 256° West 414 476 36,000  Level Kansas City Center
08:05PM 38.5447 -97.8011 256° West 415 478 36,000  Level Kansas City Center
08:06PM 38.5169 -97.9422 256° West 414 476 36,000  Level Kansas City Center
08:07PM 38.4883 -98.0867 256° West 420 483 36,000  Level Kansas City Center
08:08PM 38.4672 -98.2308 259° West 417 480 36,000  Level Kansas City Center
08:09PM 38.4475 -98.4064 262° West 420 483 36,000  Level Kansas City Center
08:10PM 38.4308 -98.5519 262° West 417 480 36,000  Level Kansas City Center
08:11PM 38.4136 -98.6981 261° West 418 481 36,000  Level Kansas City Center
08:13PM 38.3967 -98.8439 262° West 417 480 36,000  Level Kansas City Center
08:14PM 38.3783 -98.9889 261° West 416 479 36,000  Level Kansas City Center
08:15PM 38.3611 -99.1325 261° West 413 475 36,000  Level Kansas City Center
08:16PM 38.3394 -99.3083 261° West 417 480 36,000  Level Kansas City Center
08:17PM 38.3217 -99.4531 261° West 417 480 36,000  Level Kansas City Center
08:18PM 38.3022 -99.5986 260° West 419 482 36,000  Level Kansas City Center
08:19PM 38.2814 -99.7625 261° West 421 484 36,000  Level Kansas City Center
08:20PM 38.2636 -99.9033 261° West 421 484 36,000  Level Kansas City Center
08:21PM 38.2406 -100.0656 260° West 419 482 36,000  Level Kansas City Center
08:22PM 38.2233 -100.2039 261° West 416 479 36,000  Level Kansas City Center
08:23PM 38.2014 -100.3647 260° West 414 476 36,000  Level Kansas City Center
08:24PM 38.1839 -100.5006 261° West 411 473 36,000  Level Kansas City Center
08:25PM 38.1619 -100.6606 260° West 412 474 36,000  Level Kansas City Center
08:26PM 38.1433 -100.7986 260° West 415 478 36,000  Level Kansas City Center
08:27PM 38.1208 -100.9606 260° West 419 482 36,000  Level Kansas City Center
08:28PM 38.1014 -101.0992 260° West 420 483 36,000  Level Kansas City Center
08:29PM 38.0775 -101.2611 259° West 421 484 36,000  Level Kansas City Center
08:30PM 38.0569 -101.4008 259° West 422 486 36,000  Level Kansas City Center
08:31PM 38.0342 -101.5631 260° West 421 484 36,000  Level Kansas City Center
08:32PM 38.0133 -101.7014 259° West 419 482 36,000  Level Kansas City Center
08:33PM 37.9897 -101.8647 260° West 422 486 36,000 60 Level Kansas City Center
08:34PM 37.9692 -102.0056 260° West 424 488 36,200 480 Climbing Kansas City Center
08:35PM 37.9436 -102.1714 259° West 428 493 37,000 360 Climbing Kansas City Center
08:36PM 37.9217 -102.3125 259° West 429 494 37,000  Level Kansas City Center
08:37PM 37.8969 -102.4772 259° West 427 491 37,100 420 Climbing Kansas City Center
08:38PM 37.8731 -102.6319 259° West 430 495 38,000 420 Climbing Denver Center
08:39PM 37.8475 -102.7983 259° West 430 495 38,000  Level Denver Center
08:40PM 37.8247 -102.9414 259° West 432 497 38,000  Level Denver Center
08:41PM 37.8028 -103.0822 259° West 429 494 38,000  Level Denver Center
08:43PM 37.7767 -103.2469 259° West 429 494 38,000  Level Denver Center
08:44PM 37.7536 -103.3864 258° West 425 489 38,000  Level Denver Center
08:45PM 37.7283 -103.5492 259° West 424 488 38,000  Level Denver Center
08:46PM 37.7053 -103.6864 258° West 421 484 38,000  Level Denver Center
08:47PM 37.6800 -103.8456 259° West 417 480 38,000  Level Denver Center
08:48PM 37.6586 -103.9819 259° West 419 482 38,000  Level Denver Center
08:49PM 37.6303 -104.1403 257° West 424 488 38,000  Level Denver Center
08:50PM 37.6061 -104.2725 257° West 411 473 38,000  Level Denver Center
08:51PM 37.5792 -104.4297 258° West 412 474 38,000  Level Denver Center
08:52PM 37.5561 -104.5647 258° West 412 474 38,000  Level Denver Center
08:53PM 37.5289 -104.7233 258° West 416 479 38,000  Level Denver Center
08:54PM 37.5053 -104.8589 258° West 415 478 38,000  Level Denver Center
08:55PM 37.4803 -104.9964 257° West 419 482 38,000  Level Denver Center
08:56PM 37.4528 -105.1567 258° West 419 482 38,000  Level Denver Center
08:57PM 37.4281 -105.2975 258° West 421 484 38,000  Level Denver Center
08:58PM 37.3983 -105.4581 257° West 422 486 38,000  Level Denver Center
08:59PM 37.3725 -105.5933 257° West 417 480 38,000  Level Denver Center
09:00PM 37.3475 -105.7289 257° West 415 478 38,000  Level Denver Center
09:01PM 37.3192 -105.8858 257° West 414 476 38,000  Level Denver Center
09:02PM 37.2942 -106.0200 257° West 412 474 38,000  Level Denver Center
09:03PM 37.2661 -106.1753 257° West 408 470 38,000  Level Denver Center
09:04PM 37.2406 -106.3058 256° West 405 466 38,000  Level Denver Center
09:05PM 37.2125 -106.4589 257° West 403 464 38,000  Level Denver Center
09:06PM 37.1875 -106.5917 257° West 408 470 38,000  Level Denver Center
09:07PM 37.1603 -106.7269 256° West 418 481 38,000  Level Denver Center
09:08PM 37.1303 -106.8853 257° West 419 482 38,000  Level Denver Center
09:09PM 37.0961 -107.0639 257° West 415 478 38,000  Level Denver Center
09:10PM 37.0692 -107.1964 256° West 411 473 38,000  Level Denver Center
09:11PM 37.0439 -107.3283 257° West 408 470 38,000  Level Denver Center
09:12PM 37.0175 -107.4614 256° West 411 473 38,000  Level Denver Center
09:14PM 36.9856 -107.6158 256° West 411 473 38,000  Level Denver Center
09:15PM 36.9553 -107.7697 256° West 408 470 38,000  Level Denver Center
09:16PM 36.9283 -107.9006 256° West 408 470 38,000  Level Denver Center
09:17PM 36.8978 -108.0517 256° West 405 466 38,000  Level Denver Center
09:18PM 36.8708 -108.1808 255° West 403 464 38,000  Level Denver Center
09:19PM 36.8444 -108.3106 256° West 401 461 38,000  Level Denver Center
09:20PM 36.8175 -108.4411 256° West 406 467 38,000  Level Denver Center
09:21PM 36.7847 -108.5933 255° West 407 468 38,000  Level Denver Center
09:22PM 36.7511 -108.7519 255° West 420 483 38,000  Level Denver Center
09:23PM 36.7228 -108.8886 256° West 426 490 38,000  Level Denver Center
09:24PM 36.6892 -109.0444 255° West 420 483 38,000  Level Denver Center
09:25PM 36.6603 -109.1761 255° West 415 478 38,000  Level Denver Center
09:26PM 36.6289 -109.3272 256° West 408 470 38,000  Level Denver Center
09:27PM 36.6003 -109.4578 255° West 408 470 38,000  Level Denver Center
09:28PM 36.5725 -109.5861 255° West 405 466 38,000  Level Denver Center
09:29PM 36.5389 -109.7369 255° West 405 466 38,000  Level Denver Center
09:30PM 36.5089 -109.8686 254° West 411 473 38,000  Level Denver Center
09:31PM 36.4750 -110.0200 254° West 410 472 38,000  Level Denver Center
09:32PM 36.4464 -110.1533 255° West 408 470 38,000  Level Denver Center
09:33PM 36.4156 -110.2881 254° West 406 467 38,000  Level Denver Center
09:34PM 36.3850 -110.4258 255° West 412 474 38,000  Level Denver Center
09:35PM 36.3531 -110.5628 254° West 414 476 38,000  Level Denver Center
09:36PM 36.3206 -110.7006 254° West 415 478 38,000  Level Denver Center
09:37PM 36.2831 -110.8639 254° West 413 475 38,000  Level Denver Center
09:38PM 36.2506 -111.0011 254° West 414 476 38,000  Level Denver Center
09:39PM 36.2189 -111.1361 254° West 410 472 38,000  Level Denver Center
09:40PM 36.1867 -111.2717 254° West 409 471 38,000  Level Denver Center
09:41PM 36.1542 -111.4067 253° West 410 472 38,000  Level Denver Center
09:42PM 36.1236 -111.5408 254° West 406 467 38,000  Level Denver Center
09:43PM 36.0914 -111.6747 253° West 405 466 38,000  Level Denver Center
09:44PM 36.0586 -111.8083 253° West 406 467 38,000  Level Denver Center
09:45PM 36.0203 -111.9667 253° West 403 464 38,000  Level Denver Center
09:46PM 35.9869 -112.0989 253° West 403 464 38,000  Level Denver Center
09:47PM 35.9619 -112.2047 254° West 402 463 38,000  Level Denver Center
09:48PM 35.9233 -112.3628 253° West 402 463 38,000  Level Denver Center
09:50PM 35.8892 -112.4989 253° West 406 467 38,000  Level Los Angeles Center
09:51PM 35.8503 -112.6553 253° West 403 464 38,000  Level Los Angeles Center
09:52PM 35.8181 -112.7861 253° West 404 465 38,000  Level Los Angeles Center
09:53PM 35.7789 -112.9419 253° West 404 465 38,000  Level Los Angeles Center
09:54PM 35.7453 -113.0733 253° West 408 470 38,000  Level Los Angeles Center
09:55PM 35.7122 -113.2050 253° West 410 472 38,000  Level Los Angeles Center
09:56PM 35.6711 -113.3631 252° West 411 473 38,000  Level Los Angeles Center
09:57PM 35.6378 -113.4958 253° West 412 474 38,000  Level Los Angeles Center
09:58PM 35.5936 -113.6236 247° West 409 471 38,000  Level Los Angeles Center
09:59PM 35.5428 -113.7467 243° Southwest 409 471 38,000  Level Los Angeles Center
10:00PM 35.4928 -113.8700 244° Southwest 407 468 38,000  Level Los Angeles Center
10:01PM 35.4342 -114.0122 243° Southwest 401 461 38,000  Level Los Angeles Center
10:02PM 35.3844 -114.1333 243° Southwest 399 459 38,000  Level Los Angeles Center
10:03PM 35.3339 -114.2567 243° Southwest 402 463 38,000  Level Los Angeles Center
10:04PM 35.2833 -114.3794 243° Southwest 402 463 38,000  Level Los Angeles Center
10:05PM 35.2331 -114.5019 243° Southwest 403 464 38,000  Level Los Angeles Center
10:06PM 35.1811 -114.6242 243° Southwest 404 465 38,000  Level Los Angeles Center
10:07PM 35.1303 -114.7481 243° Southwest 405 466 38,000  Level Los Angeles Center
10:08PM 35.0603 -114.9150 243° Southwest 396 456 38,000  Level Los Angeles Center
10:10PM 35.0094 -115.0353 243° Southwest 398 458 38,000  Level Los Angeles Center
10:11PM 34.9597 -115.1531 243° Southwest 392 451 38,000  Level Los Angeles Center
10:12PM 34.9183 -115.2492 242° Southwest 397 457 38,000  Level Los Angeles Center
10:13PM 34.8592 -115.3908 243° Southwest 394 453 38,000  Level Los Angeles Center
10:14PM 34.8089 -115.5092 243° Southwest 393 452 38,000  Level Los Angeles Center
10:15PM 34.7603 -115.6222 242° Southwest 395 455 38,000  Level Los Angeles Center
10:16PM 34.6989 -115.7642 242° Southwest 395 455 38,000  Level Los Angeles Center
10:17PM 34.6478 -115.8822 242° Southwest 396 456 38,000  Level Los Angeles Center
10:18PM 34.5992 -115.9967 243° Southwest 387 445 38,000  Level Los Angeles Center
10:19PM 34.5483 -116.1103 242° Southwest 384 442 38,000 -1,080 Level Los Angeles Center
10:20PM 34.4986 -116.2250 242° Southwest 384 442 35,800 -2,640 Descending Los Angeles Center
10:21PM 34.4469 -116.3450 242° Southwest 397 457 32,700 -2,640 Descending Los Angeles Center
10:22PM 34.3944 -116.4644 242° Southwest 401 461 30,400 -2,280 Descending Los Angeles Center
10:23PM 34.3425 -116.5803 242° Southwest 394 453 28,100 -2,160 Descending Los Angeles Center
10:24PM 34.2936 -116.6889 241° Southwest 372 428 26,000 -2,280 Descending Los Angeles Center
10:25PM 34.2381 -116.8144 242° Southwest 355 409 23,500 -2,220 Descending Los Angeles Center
10:26PM 34.1931 -116.9164 242° Southwest 347 399 21,500 -1,620 Descending Los Angeles Center
10:27PM 34.1606 -117.0281 251° West 357 411 20,200 -1,560 Descending Los Angeles Center
10:28PM 34.1367 -117.1492 257° West 369 425 18,400 -1,560 Descending Los Angeles Center
10:29PM 34.1147 -117.2608 257° West 360 414 17,000 -2,340 Descending Los Angeles Center
10:30PM 34.0833 -117.4167 256° West 349 402 13,400 -2,700 Descending Southern California TRACON
10:31PM 34.0667 -117.5167 259° West 337 388 11,300 -1,800 Descending Southern California TRACON
10:32PM 34.0333 -117.6333 251° West 327 376 9,900 -840 Descending Southern California TRACON
10:33PM 34.0167 -117.7167 256° West 279 321 9,700 -780 Descending Southern California TRACON
10:34PM 34.0167 -117.8167 270° West 268 308 8,400 -1,260 Descending Southern California TRACON
10:35PM 34.0000 -117.9000 256° West 260 299 7,200 -1,080 Descending Southern California TRACON
10:36PM 34.0000 -117.9833 270° West 265 305 6,300 -960 Descending Southern California TRACON
10:37PM 33.9833 -118.0667 256° West 266 306 5,300 -1,080 Descending Southern California TRACON
10:38PM 33.9833 -118.1500 270° West 254 292 4,200 -1,200 Descending Southern California TRACON
10:39PM 33.9731 -118.1964 255° West 258 297 3,500 -1,260 Descending Los Angeles Center
10:40PM 33.9661 -118.2658 263° West 228 262 2,300 -1,080 Descending Los Angeles Center
10:41PM 33.9606 -118.3250 264° West 197 227 1,300 -840 Descending Los Angeles Center
10:42PM 33.9567 -118.3728 264° West 164 189 600 -720 Descending Los Angeles Center
10:45PM 33.9333 -118.4000 259° West  Level FlightAware Approximate